Time;durP1;ratioP1;P1;durP2;ratioP2;P2;SDS_P1;SDS_P2;PMS_P1;PMS_P2;Temp;Humidity;BMP_temperature;BMP_pressure;BME280_temperature;BME280_humidity;BME280_pressure;Samples;Min_cycle;Max_cycle;Signal;HPM_P1;HPM_P2
2023/12/21 00:00:50;;;;;;;30.67;15.40;;;;;;;4.81;81.07;96281.06;5065934;28;20675;-75
2023/12/21 00:03:18;;;;;;;28.13;17.03;;;;;;;4.62;81.53;96271.47;5067125;28;20204;-74
2023/12/21 00:05:45;;;;;;;24.37;15.53;;;;;;;4.60;81.36;96281.78;5064338;28;20186;-74
2023/12/21 00:08:12;;;;;;;26.53;14.80;;;;;;;4.20;82.60;96288.31;5064827;28;20201;-74
2023/12/21 00:10:39;;;;;;;24.33;14.47;;;;;;;4.15;82.08;96288.47;5066262;28;20292;-74
2023/12/21 00:13:06;;;;;;;23.60;15.13;;;;;;;3.86;83.15;96275.75;5065469;28;20316;-74
2023/12/21 00:15:33;;;;;;;22.10;13.37;;;;;;;3.98;83.26;96280.47;5065180;28;20577;-71
2023/12/21 00:18:00;;;;;;;24.03;14.47;;;;;;;3.92;83.08;96296.03;5064118;28;20199;-74
2023/12/21 00:20:27;;;;;;;28.70;14.70;;;;;;;3.60;83.71;96273.19;5066246;28;20243;-74
2023/12/21 00:22:54;;;;;;;28.77;15.80;;;;;;;3.55;84.33;96291.25;5065227;28;20255;-72
2023/12/21 00:25:21;;;;;;;29.53;15.97;;;;;;;3.22;85.37;96259.81;5066161;28;20639;-75
2023/12/21 00:27:48;;;;;;;24.37;13.60;;;;;;;3.29;85.61;96274.13;5065967;28;20781;-75
2023/12/21 00:30:16;;;;;;;23.03;13.80;;;;;;;3.34;86.59;96280.81;5065684;28;20227;-74
2023/12/21 00:32:44;;;;;;;26.53;13.73;;;;;;;3.39;87.86;96273.84;5066278;28;20207;-74
2023/12/21 00:35:11;;;;;;;24.60;13.80;;;;;;;3.50;88.19;96266.69;5067005;28;20189;-73
2023/12/21 00:37:38;;;;;;;21.87;12.77;;;;;;;3.71;87.84;96268.59;5070413;28;20193;-73
2023/12/21 00:40:06;;;;;;;18.43;11.70;;;;;;;3.67;87.22;96246.53;5068976;28;20246;-74
2023/12/21 00:42:34;;;;;;;25.47;13.47;;;;;;;3.96;86.33;96262.63;5068675;28;20204;-74
2023/12/21 00:45:01;;;;;;;20.80;13.40;;;;;;;3.99;86.42;96270.22;5071245;28;20200;-73
2023/12/21 00:47:31;;;;;;;20.43;13.10;;;;;;;4.16;85.61;96261.97;5072934;28;20212;-72
2023/12/21 00:49:59;;;;;;;24.23;14.57;;;;;;;3.98;83.88;96208.75;5070169;28;20181;-73
2023/12/21 00:52:26;;;;;;;27.07;15.60;;;;;;;4.39;82.73;96256.88;5068654;28;20236;-73
2023/12/21 00:54:53;;;;;;;27.13;15.60;;;;;;;4.04;83.13;96234.19;5069985;28;20226;-73
2023/12/21 00:57:20;;;;;;;27.57;15.50;;;;;;;4.11;83.81;96251.88;5067312;28;20213;-74
2023/12/21 00:59:47;;;;;;;23.83;15.63;;;;;;;4.15;83.83;96242.34;5069882;28;20197;-74
2023/12/21 01:02:14;;;;;;;21.80;13.30;;;;;;;4.13;83.72;96244.13;5069157;28;20189;-76
2023/12/21 01:04:41;;;;;;;20.87;13.43;;;;;;;4.15;83.44;96247.47;5069403;28;20583;-75
2023/12/21 01:07:09;;;;;;;24.87;15.23;;;;;;;4.13;82.83;96228.75;5069737;28;20230;-74
2023/12/21 01:09:36;;;;;;;27.30;15.40;;;;;;;4.20;83.01;96244.75;5068799;28;20201;-76
2023/12/21 01:12:03;;;;;;;24.63;14.60;;;;;;;4.07;82.91;96223.84;5068294;28;20196;-76
2023/12/21 01:14:31;;;;;;;24.40;15.27;;;;;;;4.17;83.40;96235.44;5068422;28;20802;-77
2023/12/21 01:16:58;;;;;;;24.10;15.10;;;;;;;4.11;83.20;96238.22;5068261;28;20662;-74
2023/12/21 01:19:26;;;;;;;23.03;13.07;;;;;;;4.15;82.31;96239.78;5068806;28;20197;-75
2023/12/21 01:21:53;;;;;;;21.30;13.23;;;;;;;3.95;82.29;96229.38;5069519;28;20186;-77
2023/12/21 01:24:20;;;;;;;23.63;14.07;;;;;;;3.75;82.79;96226.63;5069524;28;20283;-76
2023/12/21 01:26:47;;;;;;;22.93;15.27;;;;;;;3.77;82.93;96218.00;5068649;28;20238;-76
2023/12/21 01:29:14;;;;;;;23.97;13.87;;;;;;;3.84;82.74;96226.31;5069507;28;20193;-75
2023/12/21 01:31:41;;;;;;;21.53;12.23;;;;;;;3.63;82.35;96219.31;5068265;28;20232;-74
2023/12/21 01:34:08;;;;;;;25.40;12.97;;;;;;;3.50;83.94;96210.38;5069400;28;21133;-74
2023/12/21 01:36:36;;;;;;;19.47;12.40;;;;;;;3.60;83.84;96216.88;5068260;28;20200;-74
2023/12/21 01:39:03;;;;;;;21.37;12.37;;;;;;;3.48;83.71;96192.53;5069055;28;20217;-77
2023/12/21 01:41:30;;;;;;;24.07;13.27;;;;;;;3.79;83.46;96215.41;5072789;28;20665;-74
2023/12/21 01:43:57;;;;;;;23.70;13.97;;;;;;;3.52;83.12;96200.94;5068747;28;20687;-76
2023/12/21 01:46:25;;;;;;;24.47;12.97;;;;;;;3.29;83.97;96184.59;5069290;28;20208;-77
2023/12/21 01:48:52;;;;;;;26.77;14.03;;;;;;;3.37;83.96;96203.97;5068021;28;20204;-76
2023/12/21 01:51:20;;;;;;;22.97;13.27;;;;;;;3.21;84.24;96175.47;5069402;28;20201;-73
2023/12/21 01:53:50;;;;;;;22.23;12.77;;;;;;;3.03;85.21;96173.47;5049770;28;20572;-75
2023/12/21 01:56:20;;;;;;;25.80;14.90;;;;;;;3.10;86.22;96168.13;5069063;28;20201;-75
2023/12/21 02:02:23;;;;;;;28.23;15.80;;;;;;;2.97;87.10;96179.59;4949523;28;20225;-75
2023/12/21 02:05:05;;;;;;;26.40;15.97;;;;;;;3.15;86.75;96173.91;4951246;28;20694;-74
2023/12/21 02:07:32;;;;;;;26.80;14.60;;;;;;;3.10;87.73;96167.28;4949727;28;20240;-75
2023/12/21 02:10:00;;;;;;;21.50;13.17;;;;;;;3.08;87.82;96153.69;4951011;28;20259;-75
2023/12/21 02:12:27;;;;;;;18.33;12.90;;;;;;;3.21;87.08;96160.13;4949650;28;20205;-75
2023/12/21 02:14:55;;;;;;;21.67;12.70;;;;;;;3.35;86.03;96141.75;4949259;29;20229;-75
2023/12/21 02:17:25;;;;;;;21.30;11.97;;;;;;;3.49;85.92;96162.63;4965363;28;20587;-75
2023/12/21 02:19:53;;;;;;;23.17;13.20;;;;;;;3.51;84.67;96146.34;4949841;28;20200;-74
2023/12/21 02:22:24;;;;;;;22.77;13.33;;;;;;;3.58;84.55;96160.63;4950929;28;20335;-74
2023/12/21 02:24:51;;;;;;;19.50;11.50;;;;;;;3.42;85.33;96161.16;4949198;28;20217;-74
2023/12/21 02:27:18;;;;;;;18.70;12.07;;;;;;;3.25;85.83;96146.34;4950955;28;20193;-76
2023/12/21 02:29:45;;;;;;;19.27;12.10;;;;;;;3.06;87.18;96153.75;4949396;28;20221;-75
2023/12/21 02:32:12;;;;;;;20.33;12.07;;;;;;;3.15;87.47;96162.88;4950345;28;20254;-75
2023/12/21 02:34:39;;;;;;;22.70;12.90;;;;;;;2.73;87.92;96101.09;4950684;28;20261;-75
2023/12/21 02:37:06;;;;;;;19.30;12.30;;;;;;;3.08;88.20;96162.22;4949281;28;20193;-75
2023/12/21 02:39:33;;;;;;;21.87;12.80;;;;;;;3.09;87.88;96161.31;4950621;28;20201;-77
2023/12/21 02:42:00;;;;;;;21.77;13.70;;;;;;;3.18;88.29;96161.03;4949222;28;20671;-78
2023/12/21 02:44:27;;;;;;;21.73;13.17;;;;;;;3.17;87.65;96159.34;4950597;28;20277;-76
2023/12/21 02:46:55;;;;;;;21.27;13.67;;;;;;;3.13;88.08;96154.41;4947668;28;20244;-77
2023/12/21 02:49:22;;;;;;;19.73;12.47;;;;;;;3.00;89.18;96147.97;4950462;28;20688;-76
2023/12/21 02:51:49;;;;;;;20.17;12.07;;;;;;;3.05;89.46;96148.69;4949836;28;20202;-77
2023/12/21 02:54:16;;;;;;;21.40;12.60;;;;;;;3.12;89.24;96152.72;4949016;28;20233;-77
2023/12/21 02:56:43;;;;;;;25.37;13.20;;;;;;;3.05;90.04;96154.63;4948836;28;20277;-76
2023/12/21 02:59:10;;;;;;;22.07;13.20;;;;;;;2.96;89.50;96126.78;4948382;28;20699;-77
2023/12/21 03:01:41;;;;;;;21.47;12.77;;;;;;;3.21;89.95;96137.91;4950186;28;20221;-76
2023/12/21 03:04:11;;;;;;;20.23;13.00;;;;;;;3.20;90.21;96141.38;4948245;28;20200;-76
2023/12/21 03:06:39;;;;;;;20.70;11.67;;;;;;;3.01;89.38;96127.47;4948771;28;20284;-76
2023/12/21 03:09:06;;;;;;;15.37;10.07;;;;;;;3.17;90.00;96146.56;4949445;28;20197;-77
2023/12/21 03:11:33;;;;;;;20.53;11.67;;;;;;;3.17;89.45;96145.75;4947705;28;20232;-76
2023/12/21 03:14:00;;;;;;;17.90;11.03;;;;;;;3.00;90.48;96114.75;4949910;28;20228;-75
2023/12/21 03:16:27;;;;;;;17.80;10.60;;;;;;;3.24;90.43;96150.63;4946614;28;20205;-75
2023/12/21 03:18:54;;;;;;;20.33;12.13;;;;;;;3.35;90.35;96149.44;4948362;28;20698;-75
2023/12/21 03:21:21;;;;;;;20.10;10.83;;;;;;;3.25;90.10;96139.50;4947995;28;20194;-76
2023/12/21 03:23:48;;;;;;;20.17;11.40;;;;;;;3.35;89.83;96142.59;4949662;28;20758;-77
2023/12/21 03:26:15;;;;;;;20.67;11.87;;;;;;;3.62;88.62;96138.31;4948689;28;20189;-76
2023/12/21 03:28:44;;;;;;;26.13;15.07;;;;;;;3.85;87.88;96140.94;4948846;28;20688;-75
2023/12/21 03:31:12;;;;;;;20.20;13.07;;;;;;;3.83;87.08;96142.72;4949777;28;20548;-75
2023/12/21 03:33:39;;;;;;;22.47;14.00;;;;;;;3.93;86.28;96144.06;4947926;28;20224;-75
2023/12/21 03:36:06;;;;;;;24.40;12.90;;;;;;;3.70;85.50;96120.97;4949492;28;20254;-75
2023/12/21 03:38:34;;;;;;;18.67;11.40;;;;;;;4.06;85.10;96147.88;4948065;28;20193;-76
2023/12/21 03:41:02;;;;;;;18.83;12.17;;;;;;;4.02;84.34;96147.16;4949538;28;20760;-76
2023/12/21 03:43:29;;;;;;;18.07;11.37;;;;;;;3.96;84.44;96143.94;4947207;28;20197;-76
2023/12/21 03:45:57;;;;;;;21.97;12.23;;;;;;;3.84;84.52;96152.91;4948735;28;20603;-74
2023/12/21 03:48:24;;;;;;;18.77;12.93;;;;;;;3.85;84.00;96146.88;4947787;28;20288;-75
2023/12/21 03:50:52;;;;;;;30.80;15.70;;;;;;;3.46;84.44;96148.22;4947494;28;20221;-75
2023/12/21 03:53:19;;;;;;;26.90;14.57;;;;;;;3.29;84.59;96130.00;4947839;29;20212;-75
2023/12/21 03:55:46;;;;;;;21.00;13.40;;;;;;;3.38;84.57;96134.00;4947562;28;20273;-76
2023/12/21 03:58:14;;;;;;;18.30;12.07;;;;;;;2.99;84.77;96125.84;4947749;28;20687;-76
2023/12/21 04:00:41;;;;;;;23.73;13.07;;;;;;;3.07;84.82;96129.84;4947815;28;20228;-75
2023/12/21 04:03:08;;;;;;;24.00;12.93;;;;;;;3.04;84.83;96135.06;4947377;28;20182;-75
2023/12/21 04:05:38;;;;;;;18.00;11.00;;;;;;;3.04;84.36;96119.72;4947868;29;20197;-75
2023/12/21 04:08:06;;;;;;;20.13;12.97;;;;;;;3.11;83.54;96131.41;4946220;28;20585;-75
2023/12/21 04:10:33;;;;;;;22.17;12.87;;;;;;;3.18;83.69;96126.94;4948260;28;20193;-75
2023/12/21 04:13:01;;;;;;;20.47;13.13;;;;;;;3.15;84.23;96117.66;4947420;28;20692;-74
2023/12/21 04:15:28;;;;;;;20.93;12.23;;;;;;;3.09;84.71;96114.47;4948832;28;20220;-77
2023/12/21 04:17:55;;;;;;;18.27;11.53;;;;;;;3.12;84.28;96115.19;4946191;28;20295;-76
2023/12/21 04:20:22;;;;;;;23.70;11.87;;;;;;;3.02;84.16;96107.84;4948622;28;20201;-76
2023/12/21 04:22:50;;;;;;;34.33;16.13;;;;;;;2.94;84.55;96118.34;4947050;28;20193;-76
2023/12/21 04:25:18;;;;;;;33.57;17.90;;;;;;;3.05;85.03;96100.91;4946096;28;20231;-74
2023/12/21 04:27:45;;;;;;;31.53;15.07;;;;;;;2.87;85.79;96111.72;4948703;28;20200;-75
2023/12/21 04:30:12;;;;;;;35.43;17.90;;;;;;;2.88;85.77;96105.75;4947093;28;20633;-76
2023/12/21 04:32:40;;;;;;;34.57;14.73;;;;;;;2.94;85.92;96102.16;4949089;28;20282;-75
2023/12/21 04:35:08;;;;;;;24.83;14.30;;;;;;;3.09;85.65;96112.72;4947448;28;20232;-75
2023/12/21 04:37:35;;;;;;;32.83;15.20;;;;;;;3.04;85.61;96112.06;4948614;28;20195;-74
2023/12/21 04:40:03;;;;;;;28.03;14.23;;;;;;;3.10;85.92;96111.84;4948054;28;20209;-75
2023/12/21 04:42:31;;;;;;;23.20;14.07;;;;;;;3.18;85.80;96111.59;4947650;28;20244;-75
2023/12/21 04:44:58;;;;;;;25.33;14.43;;;;;;;3.15;85.10;96109.16;4948480;28;20767;-76
2023/12/21 04:47:25;;;;;;;31.10;15.30;;;;;;;3.16;85.32;96109.09;4947383;28;20658;-76
2023/12/21 04:49:52;;;;;;;35.60;17.93;;;;;;;3.15;84.84;96107.41;4948543;28;20201;-77
2023/12/21 04:52:19;;;;;;;35.73;17.60;;;;;;;3.20;84.35;96109.81;4929816;28;20201;-78
2023/12/21 04:54:46;;;;;;;34.97;17.10;;;;;;;3.21;83.81;96104.66;4948412;28;20232;-76
2023/12/21 04:57:13;;;;;;;45.83;17.80;;;;;;;3.18;84.36;96106.47;4946784;28;20220;-75
2023/12/21 04:59:43;;;;;;;41.23;19.17;;;;;;;3.15;84.39;96106.59;4947116;28;20229;-77
2023/12/21 05:02:10;;;;;;;29.00;13.60;;;;;;;2.39;83.57;96003.34;4948926;28;20222;-77
2023/12/21 05:04:38;;;;;;;21.93;12.07;;;;;;;2.85;83.47;96113.50;4961601;28;20216;-77
2023/12/21 05:07:08;;;;;;;19.73;11.80;;;;;;;2.38;83.85;96096.19;4948457;28;20189;-75
2023/12/21 05:09:43;;;;;;;14.83;10.00;;;;;;;2.06;85.81;96094.53;4931267;28;20664;-75
2023/12/21 05:12:11;;;;;;;20.60;10.53;;;;;;;2.19;87.26;96126.53;4948380;28;20193;-76
2023/12/21 05:14:38;;;;;;;19.17;9.70;;;;;;;2.14;88.29;96130.91;4947760;28;20314;-75
2023/12/21 05:17:05;;;;;;;16.43;10.37;;;;;;;2.06;87.46;96109.03;4947023;28;20260;-74
2023/12/21 05:19:35;;;;;;;18.83;10.60;;;;;;;2.24;87.61;96127.25;4948380;28;20220;-77
2023/12/21 05:22:02;;;;;;;16.53;10.97;;;;;;;2.29;87.73;96127.09;4950305;28;20190;-75
2023/12/21 05:24:29;;;;;;;18.60;10.93;;;;;;;2.08;88.99;96107.28;4952147;28;20299;-75
2023/12/21 05:26:58;;;;;;;17.20;9.87;;;;;;;2.36;88.04;96138.81;4948897;28;20201;-76
2023/12/21 05:29:26;;;;;;;18.87;10.87;;;;;;;2.43;88.70;96130.13;4950407;28;20209;-77
2023/12/21 05:31:58;;;;;;;18.40;11.10;;;;;;;2.59;87.29;96146.66;4951370;28;20197;-74
2023/12/21 05:34:26;;;;;;;19.63;12.23;;;;;;;2.72;86.62;96135.19;4949676;28;20584;-74
2023/12/21 05:36:54;;;;;;;22.50;11.30;;;;;;;2.65;86.10;96140.53;4951440;28;20695;-75
2023/12/21 05:39:23;;;;;;;22.33;12.87;;;;;;;2.59;86.49;96123.66;4950115;28;20660;-75
2023/12/21 05:41:53;;;;;;;20.83;12.20;;;;;;;2.56;86.15;96133.97;4951646;28;20197;-75
2023/12/21 05:44:20;;;;;;;21.93;12.43;;;;;;;2.57;86.86;96153.53;4950278;28;20229;-76
2023/12/21 05:46:47;;;;;;;21.33;11.60;;;;;;;2.71;86.46;96141.19;4932523;29;20268;-74
2023/12/21 05:49:14;;;;;;;18.87;11.70;;;;;;;2.43;86.72;96130.13;4933151;29;20689;-74
2023/12/21 05:51:41;;;;;;;31.93;14.70;;;;;;;2.79;85.70;96151.19;4932935;29;20222;-76
2023/12/21 05:54:10;;;;;;;30.33;12.97;;;;;;;2.42;87.77;96153.97;4944053;29;20228;-75
2023/12/21 05:56:37;;;;;;;17.13;9.90;;;;;;;2.24;89.40;96149.38;4950848;29;20197;-76
2023/12/21 05:59:04;;;;;;;16.70;10.60;;;;;;;2.26;89.12;96157.84;4951930;29;20269;-75
2023/12/21 06:01:33;;;;;;;20.97;11.80;;;;;;;2.29;88.89;96127.94;4943363;29;20250;-75
2023/12/21 06:04:01;;;;;;;19.87;10.87;;;;;;;2.45;88.74;96146.22;4934377;29;20209;-75
2023/12/21 06:06:28;;;;;;;14.73;9.27;;;;;;;2.39;89.09;96159.19;4934114;29;20222;-77
2023/12/21 06:08:55;;;;;;;16.83;11.27;;;;;;;2.43;88.81;96142.88;4931566;29;20552;-76
2023/12/21 06:11:22;;;;;;;20.73;10.60;;;;;;;2.59;87.29;96150.94;4915875;29;20198;-77
2023/12/21 06:13:51;;;;;;;23.13;12.13;;;;;;;2.52;86.58;96142.59;4931331;29;20186;-77
2023/12/21 06:16:18;;;;;;;21.47;11.63;;;;;;;2.59;85.97;96151.78;4932208;29;20250;-76
2023/12/21 06:18:48;;;;;;;20.37;12.23;;;;;;;2.62;85.98;96156.78;4931021;29;20194;-76
2023/12/21 06:21:18;;;;;;;23.53;11.73;;;;;;;2.82;84.80;96138.31;4930338;29;20288;-76
2023/12/21 06:23:46;;;;;;;23.83;13.57;;;;;;;2.66;85.30;96130.25;4930002;29;20236;-76
2023/12/21 06:26:14;;;;;;;27.17;13.93;;;;;;;2.68;85.62;96123.38;4930746;29;20369;-74
2023/12/21 06:28:42;;;;;;;19.53;11.07;;;;;;;2.79;85.64;96153.75;4938578;28;20205;-73
2023/12/21 06:31:16;;;;;;;18.63;12.43;;;;;;;2.81;85.77;96129.81;4949495;28;20201;-75
2023/12/21 06:33:48;;;;;;;17.93;11.63;;;;;;;3.12;85.01;96139.94;4949992;28;20245;-74
2023/12/21 06:36:15;;;;;;;18.40;11.47;;;;;;;3.26;85.16;96146.28;4949414;28;20236;-74
2023/12/21 06:38:44;;;;;;;17.37;11.03;;;;;;;3.43;84.22;96121.88;4949061;28;20206;-74
2023/12/21 06:41:15;;;;;;;15.03;10.73;;;;;;;3.61;84.33;96167.34;4948850;28;20289;-75
2023/12/21 06:43:43;;;;;;;21.23;13.70;;;;;;;3.72;83.52;96165.28;4949338;28;20273;-75
2023/12/21 06:46:14;;;;;;;25.43;13.63;;;;;;;3.83;82.97;96158.09;4950274;28;20292;-76
2023/12/21 06:48:41;;;;;;;29.00;14.90;;;;;;;4.00;82.95;96171.13;4948921;28;20288;-75
2023/12/21 06:51:16;;;;;;;26.20;15.97;;;;;;;4.14;82.46;96174.91;4933411;29;20610;-75
2023/12/21 06:53:45;;;;;;;27.33;16.60;;;;;;;4.21;81.11;96172.97;4948093;28;20197;-75
2023/12/21 06:56:13;;;;;;;31.73;16.40;;;;;;;3.74;82.40;96145.56;4949811;28;20785;-76
2023/12/21 06:59:00;;;;;;;43.10;23.53;;;;;;;3.91;83.51;96176.59;4950070;28;20260;-75
2023/12/21 07:01:28;;;;;;;39.40;21.47;;;;;;;4.27;81.84;96184.72;4948635;28;20260;-75
2023/12/21 07:03:56;;;;;;;45.73;24.53;;;;;;;4.42;81.90;96179.91;4950194;28;20240;-76
2023/12/21 07:06:27;;;;;;;52.67;27.77;;;;;;;3.89;81.13;96112.63;4948606;28;20244;-77
2023/12/21 07:08:54;;;;;;;49.07;25.77;;;;;;;4.61;80.74;96192.91;4950104;28;20191;-74
2023/12/21 07:11:23;;;;;;;57.23;28.07;;;;;;;4.46;80.69;96173.78;4947903;28;20191;-78
2023/12/21 07:13:50;;;;;;;50.30;28.73;;;;;;;4.53;80.74;96167.56;4948486;28;20740;-76
2023/12/21 07:16:19;;;;;;;48.47;25.93;;;;;;;4.73;80.25;96193.28;4949741;28;20598;-77
2023/12/21 07:18:46;;;;;;;32.90;19.13;;;;;;;5.04;80.30;96194.72;4946854;28;20197;-75
2023/12/21 07:21:13;;;;;;;33.73;18.00;;;;;;;4.57;80.29;96168.28;4951393;28;20194;-74
2023/12/21 07:23:41;;;;;;;36.57;20.17;;;;;;;4.94;80.57;96210.47;4950647;28;20314;-77
2023/12/21 07:26:11;;;;;;;38.53;20.37;;;;;;;4.95;80.52;96207.00;4955624;28;20229;-77
2023/12/21 07:28:40;;;;;;;38.53;20.77;;;;;;;5.02;79.72;96192.22;4954413;28;20199;-77
2023/12/21 07:31:09;;;;;;;29.50;18.67;;;;;;;4.80;79.84;96192.16;4947918;28;20193;-76
2023/12/21 07:33:38;;;;;;;27.93;15.40;;;;;;;4.65;81.28;96218.38;4948212;28;20286;-76
2023/12/21 07:36:07;;;;;;;43.37;17.63;;;;;;;4.96;81.51;96212.97;4948279;28;20309;-77
2023/12/21 07:38:36;;;;;;;29.53;18.70;;;;;;;4.75;80.60;96159.91;4948479;28;20627;-76
2023/12/21 07:41:03;;;;;;;40.87;21.37;;;;;;;4.99;80.20;96202.56;4947864;28;20194;-76
2023/12/21 07:43:30;;;;;;;35.80;18.93;;;;;;;5.21;79.95;96202.63;4949439;28;20305;-75
2023/12/21 07:45:59;;;;;;;39.60;22.27;;;;;;;5.43;79.13;96229.13;4948563;28;20214;-76
2023/12/21 07:48:27;;;;;;;36.93;20.77;;;;;;;5.18;79.23;96187.31;4948416;28;20193;-76
2023/12/21 07:50:55;;;;;;;33.90;20.87;;;;;;;5.32;79.74;96167.09;4931975;28;20202;-75
2023/12/21 07:53:26;;;;;;;29.23;17.57;;;;;;;5.35;78.09;96174.69;4946581;28;20253;-76
2023/12/21 07:55:56;;;;;;;27.27;18.13;;;;;;;5.84;78.27;96228.38;4949270;28;20238;-75
2023/12/21 07:58:23;;;;;;;30.90;17.27;;;;;;;6.03;77.99;96231.03;4931439;28;20286;-77
2023/12/21 08:00:51;;;;;;;30.70;15.33;;;;;;;5.93;76.96;96217.72;4948725;28;20676;-76
2023/12/21 08:03:19;;;;;;;25.20;16.57;;;;;;;6.04;77.54;96225.81;4947790;28;20683;-75
2023/12/21 08:05:48;;;;;;;29.93;16.30;;;;;;;6.12;76.56;96230.66;4963618;28;20307;-76
2023/12/21 08:08:16;;;;;;;26.17;16.33;;;;;;;6.19;77.08;96229.50;4948480;28;20201;-77
2023/12/21 08:10:46;;;;;;;32.80;18.10;;;;;;;6.51;76.41;96229.78;4946683;28;20697;-76
2023/12/21 08:13:14;;;;;;;33.97;18.27;;;;;;;6.54;75.63;96232.25;4947823;28;20692;-76
2023/12/21 08:15:42;;;;;;;31.40;19.17;;;;;;;6.51;75.41;96226.41;4945987;28;20719;-74
2023/12/21 08:18:13;;;;;;;51.47;25.97;;;;;;;6.31;76.07;96211.81;4948936;28;20283;-76
2023/12/21 08:20:42;;;;;;;64.37;29.27;;;;;;;6.57;76.12;96234.69;4948338;28;20247;-75
2023/12/21 08:23:13;;;;;;;47.23;25.50;;;;;;;6.68;76.79;96215.41;4947785;28;20200;-76
2023/12/21 08:25:40;;;;;;;43.77;22.87;;;;;;;6.55;75.23;96185.03;4946845;28;20214;-77
2023/12/21 08:28:07;;;;;;;44.33;24.10;;;;;;;6.84;75.89;96206.09;4947147;28;20204;-76
2023/12/21 08:30:48;;;;;;;47.83;22.47;;;;;;;6.74;75.68;96195.34;4947326;28;20201;-76
2023/12/21 08:33:29;;;;;;;45.17;22.23;;;;;;;6.75;75.50;96173.88;4918351;28;20212;-79
2023/12/21 08:36:11;;;;;;;38.77;21.63;;;;;;;7.02;75.52;96213.00;4947130;28;20233;-77
2023/12/21 08:38:42;;;;;;;35.23;20.67;;;;;;;7.22;74.37;96213.75;4947252;28;20779;-77
2023/12/21 08:41:11;;;;;;;41.47;21.47;;;;;;;7.17;74.87;96204.59;4947270;28;20658;-79
2023/12/21 08:43:39;;;;;;;35.97;22.17;;;;;;;7.30;74.01;96203.09;4916112;28;20898;-79
2023/12/21 08:46:08;;;;;;;36.77;20.37;;;;;;;7.36;74.34;96198.50;4946161;28;20284;-79
2023/12/21 08:48:37;;;;;;;33.67;18.23;;;;;;;7.53;73.33;96213.16;4951199;28;20232;-77
2023/12/21 08:51:05;;;;;;;32.53;19.23;;;;;;;7.57;73.81;96196.66;4946881;28;20181;-77
2023/12/21 08:53:34;;;;;;;31.80;17.80;;;;;;;7.63;73.03;96204.09;4948017;28;20201;-76
2023/12/21 08:56:05;;;;;;;31.37;18.33;;;;;;;7.72;72.61;96193.34;4932351;28;20233;-76
2023/12/21 08:58:42;;;;;;;34.80;19.20;;;;;;;7.93;72.70;96181.97;4950874;28;20207;-76
2023/12/21 09:01:10;;;;;;;34.87;19.63;;;;;;;7.91;71.47;96170.91;4951281;28;20227;-75
2023/12/21 09:03:38;;;;;;;28.70;17.67;;;;;;;8.24;71.32;96196.78;4946881;29;20197;-76
2023/12/21 09:06:06;;;;;;;28.27;15.50;;;;;;;8.17;69.99;96185.94;4932228;29;20228;-77
2023/12/21 09:08:37;;;;;;;26.40;13.27;;;;;;;8.31;69.52;96171.53;4930528;29;20205;-78
2023/12/21 09:11:07;;;;;;;17.47;10.93;;;;;;;8.10;68.87;96138.16;4946697;29;20588;-79
2023/12/21 09:13:35;;;;;;;13.90;10.20;;;;;;;8.54;67.05;96163.47;4932748;29;20246;-77
2023/12/21 09:16:04;;;;;;;10.33;6.70;;;;;;;8.65;63.99;96162.00;4931161;29;20306;-75
2023/12/21 09:18:37;;;;;;;13.93;8.10;;;;;;;8.95;64.22;96144.03;4947324;29;20210;-76
2023/12/21 09:21:05;;;;;;;12.60;6.33;;;;;;;8.92;61.00;96100.34;4930086;29;20193;-77
2023/12/21 09:23:32;;;;;;;12.93;5.70;;;;;;;9.40;59.30;96136.38;4932329;29;20285;-77
2023/12/21 09:26:01;;;;;;;4.37;3.30;;;;;;;9.45;53.76;96105.13;4930869;29;20206;-75
2023/12/21 09:28:29;;;;;;;9.30;4.53;;;;;;;9.76;53.32;96136.91;4936115;28;20200;-75
2023/12/21 09:30:56;;;;;;;7.70;4.20;;;;;;;9.85;53.49;96136.38;4971038;28;20202;-75
2023/12/21 09:33:24;;;;;;;6.43;5.47;;;;;;;9.80;54.27;96119.44;4983199;28;20215;-76
2023/12/21 09:35:55;;;;;;;6.93;4.57;;;;;;;10.12;53.02;96141.72;4970188;28;20314;-77
2023/12/21 09:38:25;;;;;;;11.40;6.47;;;;;;;10.31;53.04;96136.31;4967960;28;20228;-77
2023/12/21 09:40:56;;;;;;;7.43;4.73;;;;;;;10.21;50.60;96119.66;4969743;28;20282;-78
2023/12/21 09:43:27;;;;;;;5.20;3.60;;;;;;;10.46;48.56;96119.88;4951918;28;20213;-77
2023/12/21 09:45:58;;;;;;;12.07;4.27;;;;;;;10.54;48.45;96112.47;4968787;28;20211;-77
2023/12/21 09:48:28;;;;;;;5.43;3.83;;;;;;;10.70;45.83;96113.22;4969900;28;20247;-77
2023/12/21 09:50:55;;;;;;;12.23;4.37;;;;;;;10.50;45.39;96085.94;4966916;28;20205;-76
2023/12/21 09:53:26;;;;;;;5.77;4.03;;;;;;;10.78;45.83;96116.16;4968521;28;20188;-76
2023/12/21 09:55:54;;;;;;;7.90;4.57;;;;;;;10.79;46.46;96109.22;4966842;28;20259;-76
2023/12/21 09:58:23;;;;;;;10.30;4.97;;;;;;;10.88;46.89;96104.31;4970013;28;20301;-75
2023/12/21 10:00:52;;;;;;;7.17;4.47;;;;;;;10.70;46.54;96083.88;4969569;28;20243;-78
2023/12/21 10:03:20;;;;;;;6.20;4.47;;;;;;;10.79;45.09;96079.00;4968387;28;20616;-75
2023/12/21 10:05:48;;;;;;;10.23;5.80;;;;;;;11.01;44.88;96091.41;4969799;28;20185;-77
2023/12/21 10:08:20;;;;;;;8.20;5.00;;;;;;;11.09;43.66;96095.19;4967067;28;20197;-75
2023/12/21 10:10:52;;;;;;;5.23;3.57;;;;;;;10.95;43.12;96077.09;4969711;28;20197;-75
2023/12/21 10:13:19;;;;;;;11.23;4.17;;;;;;;11.18;43.38;96080.84;4967322;28;20200;-75
2023/12/21 10:15:59;;;;;;;5.00;3.53;;;;;;;11.15;42.94;96087.03;4968914;28;20284;-75
2023/12/21 10:18:27;;;;;;;6.63;3.77;;;;;;;11.13;43.11;96065.56;4969608;28;20225;-77
2023/12/21 10:20:56;;;;;;;4.87;3.77;;;;;;;10.99;42.90;96019.00;4950747;28;20208;-76
2023/12/21 10:23:27;;;;;;;6.87;3.97;;;;;;;11.39;42.33;96080.31;4968153;28;20206;-76
2023/12/21 10:25:54;;;;;;;8.27;3.63;;;;;;;11.39;42.28;96079.47;4967836;28;20197;-76
2023/12/21 10:28:24;;;;;;;7.20;4.10;;;;;;;11.24;42.65;96055.38;4969210;28;20195;-76
2023/12/21 10:30:53;;;;;;;7.87;4.53;;;;;;;11.43;42.48;96073.16;4968741;28;20225;-77
2023/12/21 10:33:27;;;;;;;6.63;4.43;;;;;;;11.44;41.86;96073.06;4951520;28;20279;-77
2023/12/21 10:35:54;;;;;;;6.70;3.77;;;;;;;11.48;41.11;96056.38;4968228;28;20222;-77
2023/12/21 10:38:24;;;;;;;6.47;4.40;;;;;;;11.51;41.83;96039.78;4967215;28;20199;-77
2023/12/21 10:40:53;;;;;;;5.17;3.77;;;;;;;11.52;41.53;96051.00;4968933;28;20231;-76
2023/12/21 10:43:21;;;;;;;4.97;3.13;;;;;;;11.56;41.42;96062.84;4968695;28;20197;-76
2023/12/21 10:45:48;;;;;;;6.83;4.23;;;;;;;11.67;41.97;96062.97;4970082;28;20202;-82
2023/12/21 10:48:27;;;;;;;4.77;3.30;;;;;;;11.58;41.60;96051.41;4968058;28;20198;-75
2023/12/21 10:50:58;;;;;;;9.17;5.03;;;;;;;11.63;42.49;96059.72;4967026;28;20278;-76
2023/12/21 10:53:27;;;;;;;6.67;4.10;;;;;;;11.62;41.74;96046.88;4968642;28;20560;-75
2023/12/21 10:55:58;;;;;;;5.67;4.50;;;;;;;11.60;41.72;96048.75;4967315;28;20232;-76
2023/12/21 10:58:30;;;;;;;5.30;4.17;;;;;;;11.55;41.00;96038.66;4970173;28;20292;-75
2023/12/21 11:01:02;;;;;;;5.93;3.93;;;;;;;11.60;42.02;96053.91;4969673;28;20225;-75
2023/12/21 11:03:30;;;;;;;6.00;4.00;;;;;;;11.61;42.07;96051.22;4969638;28;20222;-78
2023/12/21 11:06:02;;;;;;;5.37;3.50;;;;;;;11.58;41.99;96041.03;4960147;28;20668;-77
2023/12/21 11:08:30;;;;;;;4.90;3.40;;;;;;;11.31;41.97;95985.84;4949027;28;20222;-76
2023/12/21 11:10:58;;;;;;;5.73;3.60;;;;;;;11.64;41.43;96026.84;4951959;28;20204;-75
2023/12/21 11:13:25;;;;;;;5.17;3.60;;;;;;;11.70;41.56;96044.63;4950508;28;20221;-76
2023/12/21 11:15:56;;;;;;;5.00;3.60;;;;;;;11.74;40.95;96040.91;4933626;28;20714;-77
2023/12/21 11:18:26;;;;;;;5.20;3.30;;;;;;;11.65;41.17;96042.31;4948559;28;20229;-77
2023/12/21 11:20:57;;;;;;;10.23;4.13;;;;;;;11.71;41.51;96031.56;4946829;28;20230;-76
2023/12/21 11:23:24;;;;;;;5.20;3.90;;;;;;;11.65;40.49;96016.38;4947983;28;20654;-74
2023/12/21 11:25:59;;;;;;;6.77;4.07;;;;;;;11.85;40.96;96028.06;4946313;28;20570;-78
2023/12/21 11:28:31;;;;;;;5.53;3.40;;;;;;;11.89;40.74;96025.13;4949944;28;20568;-76
2023/12/21 11:31:11;;;;;;;3.63;3.27;;;;;;;11.72;40.42;95977.94;4947151;28;20207;-77
2023/12/21 11:33:39;;;;;;;6.83;3.93;;;;;;;11.92;40.57;96008.53;4948625;28;20183;-78
2023/12/21 11:36:10;;;;;;;4.73;3.33;;;;;;;11.73;39.96;95983.00;4949122;28;20324;-77